Time,TemperatureF,DewpointF,PressureIn,WindDirection,WindDirectionDegrees,WindSpeedMPH,WindSpeedGustMPH,Humidity,HourlyPrecipIn,Conditions,Clouds,dailyrainin,SoftwareType,DateUTC
2013-11-29 00:00:00,21.0,12.4,-100.00,WNW,291,0.0,0.0,69,0.00,n/a,n/a,-99.99,Henriksen +1-Wire,2013-11-29 05:00:00,
2013-11-29 00:10:00,20.4,12.0,-100.00,WNW,291,0.0,0.0,69,0.00,n/a,n/a,-99.99,Henriksen +1-Wire,2013-11-29 05:10:00,
2013-11-29 00:20:00,20.0,12.0,-100.00,WNW,291,0.0,0.0,70,0.00,n/a,n/a,-99.99,Henriksen +1-Wire,2013-11-29 05:20:00,
2013-11-29 00:30:00,19.6,12.2,-100.00,WNW,291,0.0,0.0,72,0.00,n/a,n/a,-99.99,Henriksen +1-Wire,2013-11-29 05:30:00,
2013-11-29 00:40:00,19.5,12.7,-100.00,WNW,291,0.0,0.0,74,0.00,n/a,n/a,-99.99,Henriksen +1-Wire,2013-11-29 05:40:00,
2013-11-29 00:50:00,19.5,13.2,-100.00,WNW,291,0.0,0.0,76,0.00,n/a,n/a,-99.99,Henriksen +1-Wire,2013-11-29 05:50:00,
2013-11-29 01:00:00,20.0,13.1,-100.00,WNW,291,0.0,0.0,74,0.00,n/a,n/a,-99.99,Henriksen +1-Wire,2013-11-29 06:00:00,
2013-11-29 01:10:00,20.1,12.8,-100.00,WNW,291,1.3,3.2,73,0.00,n/a,n/a,-99.99,Henriksen +1-Wire,2013-11-29 06:10:00,
2013-11-29 01:20:00,20.3,12.6,-100.00,WNW,291,0.0,0.8,71,0.00,n/a,n/a,-99.99,Henriksen +1-Wire,2013-11-29 06:20:00,
2013-11-29 01:30:00,20.2,12.6,-100.00,WNW,291,0.0,0.0,71,0.00,n/a,n/a,-99.99,Henriksen +1-Wire,2013-11-29 06:30:00,
2013-11-29 01:40:00,20.2,12.7,-100.00,WNW,291,0.0,0.0,72,0.00,n/a,n/a,-99.99,Henriksen +1-Wire,2013-11-29 06:40:00,
2013-11-29 01:50:00,20.3,12.8,-100.00,WNW,291,0.0,0.0,72,0.00,n/a,n/a,-99.99,Henriksen +1-Wire,2013-11-29 06:50:00,
2013-11-29 02:00:00,20.5,12.4,-100.00,WNW,291,0.0,0.0,70,0.00,n/a,n/a,-99.99,Henriksen +1-Wire,2013-11-29 07:00:00,
2013-11-29 02:10:00,20.6,12.0,-100.00,WNW,291,0.0,0.0,69,0.00,n/a,n/a,-99.99,Henriksen +1-Wire,2013-11-29 07:10:00,
2013-11-29 02:20:00,20.5,11.7,-100.00,WNW,291,0.0,0.0,68,0.00,n/a,n/a,-99.99,Henriksen +1-Wire,2013-11-29 07:20:00,
2013-11-29 02:30:00,20.8,12.1,-100.00,WNW,291,0.0,0.0,68,0.00,n/a,n/a,-99.99,Henriksen +1-Wire,2013-11-29 07:30:00,
2013-11-29 02:40:00,20.9,12.7,-100.00,WNW,291,0.0,0.0,70,0.00,n/a,n/a,-99.99,Henriksen +1-Wire,2013-11-29 07:40:00,
2013-11-29 02:50:00,20.7,12.5,-100.00,WNW,291,0.0,0.0,70,0.00,n/a,n/a,-99.99,Henriksen +1-Wire,2013-11-29 07:50:00,
2013-11-29 03:00:00,20.8,12.1,-100.00,WNW,291,0.0,0.0,68,0.00,n/a,n/a,-99.99,Henriksen +1-Wire,2013-11-29 08:00:00,
2013-11-29 03:10:00,21.0,12.6,-100.00,WNW,291,0.0,0.0,69,0.00,n/a,n/a,-99.99,Henriksen +1-Wire,2013-11-29 08:10:00,
2013-11-29 03:20:00,20.8,12.4,-100.00,WNW,291,0.0,0.0,69,0.00,n/a,n/a,-99.99,Henriksen +1-Wire,2013-11-29 08:20:00,
2013-11-29 03:30:00,20.9,12.5,-100.00,WNW,291,0.0,0.0,69,0.00,n/a,n/a,-99.99,Henriksen +1-Wire,2013-11-29 08:30:00,
2013-11-29 03:40:00,20.9,12.7,-100.00,WNW,291,0.0,0.0,70,0.00,n/a,n/a,-99.99,Henriksen +1-Wire,2013-11-29 08:40:00,
2013-11-29 03:50:00,20.7,12.3,-100.00,WNW,291,0.0,0.0,69,0.00,n/a,n/a,-99.99,Henriksen +1-Wire,2013-11-29 08:50:00,
2013-11-29 04:00:00,20.6,12.2,-100.00,WNW,291,0.0,0.0,69,0.00,n/a,n/a,-99.99,Henriksen +1-Wire,2013-11-29 09:00:00,
2013-11-29 04:10:00,20.5,12.1,-100.00,WNW,291,0.0,0.0,69,0.00,n/a,n/a,-99.99,Henriksen +1-Wire,2013-11-29 09:10:00,
2013-11-29 04:20:00,20.1,11.8,-100.00,WNW,291,0.0,0.0,70,0.00,n/a,n/a,-99.99,Henriksen +1-Wire,2013-11-29 09:20:00,
2013-11-29 04:30:00,19.8,11.9,-100.00,WNW,291,0.0,0.0,71,0.00,n/a,n/a,-99.99,Henriksen +1-Wire,2013-11-29 09:30:00,
2013-11-29 04:40:00,19.3,12.0,-100.00,WNW,291,0.0,0.0,73,0.00,n/a,n/a,-99.99,Henriksen +1-Wire,2013-11-29 09:40:00,
2013-11-29 04:50:00,18.8,12.1,-100.00,WNW,291,0.0,0.0,75,0.00,n/a,n/a,-99.99,Henriksen +1-Wire,2013-11-29 09:50:00,
2013-11-29 05:00:00,18.6,12.6,-100.00,WNW,291,0.0,0.0,77,0.00,n/a,n/a,-99.99,Henriksen +1-Wire,2013-11-29 10:00:00,
2013-11-29 05:10:00,18.2,12.9,-100.00,WNW,291,0.0,0.0,79,0.00,n/a,n/a,-99.99,Henriksen +1-Wire,2013-11-29 10:10:00,
2013-11-29 05:20:00,18.0,12.9,-100.00,WNW,291,0.0,0.0,80,0.00,n/a,n/a,-99.99,Henriksen +1-Wire,2013-11-29 10:20:00,
2013-11-29 05:30:00,18.0,13.4,-100.00,WNW,291,0.0,0.0,81,0.00,n/a,n/a,-99.99,Henriksen +1-Wire,2013-11-29 10:30:00,
2013-11-29 05:40:00,17.6,13.2,-100.00,WNW,291,0.0,0.0,82,0.00,n/a,n/a,-99.99,Henriksen +1-Wire,2013-11-29 10:40:00,
2013-11-29 05:50:00,17.1,12.8,-100.00,WNW,291,0.0,0.0,82,0.00,n/a,n/a,-99.99,Henriksen +1-Wire,2013-11-29 10:50:00,
2013-11-29 06:00:00,17.0,12.6,-100.00,WNW,291,0.0,0.0,82,0.00,n/a,n/a,-99.99,Henriksen +1-Wire,2013-11-29 11:00:00,
2013-11-29 06:10:00,17.0,12.8,-100.00,WNW,291,0.0,0.0,83,0.00,n/a,n/a,-99.99,Henriksen +1-Wire,2013-11-29 11:10:00,
2013-11-29 06:20:00,16.9,12.8,-100.00,WNW,291,0.0,0.0,83,0.00,n/a,n/a,-99.99,Henriksen +1-Wire,2013-11-29 11:20:00,
2013-11-29 06:30:00,16.9,12.9,-100.00,WNW,291,0.0,0.0,84,0.00,n/a,n/a,-99.99,Henriksen +1-Wire,2013-11-29 11:30:00,
2013-11-29 06:40:00,16.9,13.1,-100.00,WNW,291,0.0,0.0,85,0.00,n/a,n/a,-99.99,Henriksen +1-Wire,2013-11-29 11:40:00,
2013-11-29 06:50:00,16.8,12.9,-100.00,WNW,291,0.0,0.0,84,0.00,n/a,n/a,-99.99,Henriksen +1-Wire,2013-11-29 11:50:00,
2013-11-29 07:00:00,16.6,13.3,-100.00,WNW,291,0.0,0.0,86,0.00,n/a,n/a,-99.99,Henriksen +1-Wire,2013-11-29 12:00:00,
2013-11-29 07:10:00,16.5,13.6,-100.00,WNW,291,0.0,0.0,88,0.00,n/a,n/a,-99.99,Henriksen +1-Wire,2013-11-29 12:10:00,
2013-11-29 07:20:00,16.5,13.9,-100.00,WNW,291,0.0,0.0,89,0.00,n/a,n/a,-99.99,Henriksen +1-Wire,2013-11-29 12:20:00,
2013-11-29 07:30:00,16.6,14.0,-100.00,WNW,291,0.0,0.0,89,0.00,n/a,n/a,-99.99,Henriksen +1-Wire,2013-11-29 12:30:00,
2013-11-29 07:40:00,16.6,14.0,-100.00,WNW,291,0.0,0.0,89,0.00,n/a,n/a,-99.99,Henriksen +1-Wire,2013-11-29 12:40:00,
2013-11-29 07:50:00,16.6,14.0,-100.00,WNW,291,0.0,0.0,89,0.00,n/a,n/a,-99.99,Henriksen +1-Wire,2013-11-29 12:50:00,
2013-11-29 08:00:00,17.2,14.8,-100.00,WNW,291,0.0,0.0,90,0.00,n/a,n/a,-99.99,Henriksen +1-Wire,2013-11-29 13:00:00,
2013-11-29 08:10:00,18.0,15.3,-100.00,WNW,291,0.0,0.0,89,0.00,n/a,n/a,-99.99,Henriksen +1-Wire,2013-11-29 13:10:00,
2013-11-29 08:20:00,19.8,15.7,-100.00,WNW,289,2.7,5.7,84,0.00,n/a,n/a,-99.99,Henriksen +1-Wire,2013-11-29 13:20:00,
2013-11-29 08:30:00,20.5,14.3,-100.00,NW,326,2.3,4.9,76,0.00,n/a,n/a,-99.99,Henriksen +1-Wire,2013-11-29 13:30:00,
2013-11-29 08:40:00,21.0,13.1,-100.00,NW,316,3.9,8.1,71,0.00,n/a,n/a,-99.99,Henriksen +1-Wire,2013-11-29 13:40:00,
2013-11-29 08:50:00,21.3,12.3,-100.00,WNW,291,2.5,5.7,67,0.00,n/a,n/a,-99.99,Henriksen +1-Wire,2013-11-29 13:50:00,
2013-11-29 09:00:00,21.7,12.2,-100.00,WNW,291,2.1,9.7,66,0.00,n/a,n/a,-99.99,Henriksen +1-Wire,2013-11-29 14:00:00,
2013-11-29 09:10:00,21.7,11.8,-100.00,NNW,346,3.6,6.5,65,0.00,n/a,n/a,-99.99,Henriksen +1-Wire,2013-11-29 14:10:00,
2013-11-29 09:20:00,22.1,11.5,-100.00,NW,315,2.4,8.9,63,0.00,n/a,n/a,-99.99,Henriksen +1-Wire,2013-11-29 14:20:00,
2013-11-29 09:30:00,22.2,11.0,-100.00,NW,308,2.0,10.5,61,0.00,n/a,n/a,-99.99,Henriksen +1-Wire,2013-11-29 14:30:00,
2013-11-29 09:40:00,22.4,10.8,-100.00,NNW,343,2.5,7.3,60,0.00,n/a,n/a,-99.99,Henriksen +1-Wire,2013-11-29 14:40:00,
2013-11-29 09:50:00,22.7,10.5,-100.00,NW,312,3.1,7.3,59,0.00,n/a,n/a,-99.99,Henriksen +1-Wire,2013-11-29 14:50:00,
2013-11-29 10:00:00,23.1,10.6,-100.00,WNW,298,4.1,8.1,58,0.00,n/a,n/a,-99.99,Henriksen +1-Wire,2013-11-29 15:00:00,
2013-11-29 10:10:00,23.4,-1.9,-100.00,North,10,1.4,6.4,32,0.00,n/a,n/a,-99.99,Henriksen +1-Wire,2013-11-29 15:10:00,
2013-11-29 10:20:00,23.8,5.6,-100.00,NW,306,3.1,7.3,45,0.00,n/a,n/a,-99.99,Henriksen +1-Wire,2013-11-29 15:20:00,
2013-11-29 10:30:00,25.1,8.8,-100.00,WNW,294,2.3,6.4,49,0.00,n/a,n/a,-99.99,Henriksen +1-Wire,2013-11-29 15:30:00,
2013-11-29 10:40:00,25.7,9.4,-100.00,North,354,3.2,8.9,49,0.00,n/a,n/a,-99.99,Henriksen +1-Wire,2013-11-29 15:40:00,
2013-11-29 10:50:00,26.7,9.7,-100.00,WNW,301,1.6,8.9,48,0.00,n/a,n/a,-99.99,Henriksen +1-Wire,2013-11-29 15:50:00,
2013-11-29 11:00:00,26.1,8.8,-100.00,NNW,328,2.9,8.9,47,0.00,n/a,n/a,-99.99,Henriksen +1-Wire,2013-11-29 16:00:00,
2013-11-29 11:10:00,26.0,8.3,-100.00,WNW,297,3.6,8.1,46,0.00,n/a,n/a,-99.99,Henriksen +1-Wire,2013-11-29 16:10:00,
2013-11-29 11:20:00,26.3,8.5,-100.00,NW,313,0.8,4.9,46,0.00,n/a,n/a,-99.99,Henriksen +1-Wire,2013-11-29 16:20:00,
2013-11-29 11:30:00,26.3,9.1,-100.00,NW,312,2.5,8.1,47,0.00,n/a,n/a,-99.99,Henriksen +1-Wire,2013-11-29 16:30:00,
2013-11-29 11:40:00,26.5,9.1,-100.00,NW,322,1.7,6.4,47,0.00,n/a,n/a,-99.99,Henriksen +1-Wire,2013-11-29 16:40:00,
2013-11-29 11:50:00,28.1,9.9,-100.00,North,356,2.9,5.6,46,0.00,n/a,n/a,-99.99,Henriksen +1-Wire,2013-11-29 16:50:00,
2013-11-29 12:00:00,29.0,10.2,-100.00,NW,318,3.0,7.3,44,0.00,n/a,n/a,-99.99,Henriksen +1-Wire,2013-11-29 17:00:00,
2013-11-29 12:10:00,29.1,9.6,-100.00,WNW,300,5.1,9.7,43,0.00,n/a,n/a,-99.99,Henriksen +1-Wire,2013-11-29 17:10:00,
2013-11-29 12:20:00,27.8,7.8,-100.00,WNW,282,2.9,8.1,42,0.00,n/a,n/a,-99.99,Henriksen +1-Wire,2013-11-29 17:20:00,
2013-11-29 12:30:00,29.6,9.4,-100.00,NNW,327,2.5,4.9,42,0.00,n/a,n/a,-99.99,Henriksen +1-Wire,2013-11-29 17:30:00,
2013-11-29 12:40:00,30.4,9.5,-100.00,NW,308,3.3,5.7,41,0.00,n/a,n/a,-99.99,Henriksen +1-Wire,2013-11-29 17:40:00,
2013-11-29 12:50:00,28.9,7.9,-100.00,NNW,332,3.1,6.5,40,0.00,n/a,n/a,-99.99,Henriksen +1-Wire,2013-11-29 17:50:00,
2013-11-29 13:00:00,28.5,7.5,-100.00,WNW,298,3.2,8.9,40,0.00,n/a,n/a,-99.99,Henriksen +1-Wire,2013-11-29 18:00:00,
2013-11-29 13:10:00,28.5,7.1,-100.00,WNW,283,4.7,8.1,40,0.00,n/a,n/a,-99.99,Henriksen +1-Wire,2013-11-29 18:10:00,
2013-11-29 13:20:00,28.3,6.5,-100.00,WNW,284,3.7,11.3,39,0.00,n/a,n/a,-99.99,Henriksen +1-Wire,2013-11-29 18:20:00,
2013-11-29 13:30:00,28.6,6.2,-100.00,NW,304,2.2,9.7,38,0.00,n/a,n/a,-99.99,Henriksen +1-Wire,2013-11-29 18:30:00,
2013-11-29 13:40:00,28.7,6.2,-100.00,West,278,5.2,11.3,38,0.00,n/a,n/a,-99.99,Henriksen +1-Wire,2013-11-29 18:40:00,
2013-11-29 13:50:00,28.6,6.0,-100.00,WNW,289,0.4,7.3,37,0.00,n/a,n/a,-99.99,Henriksen +1-Wire,2013-11-29 18:50:00,
2013-11-29 14:00:00,28.5,5.7,-100.00,NNW,348,2.0,8.9,37,0.00,n/a,n/a,-99.99,Henriksen +1-Wire,2013-11-29 19:00:00,
2013-11-29 14:10:00,28.5,6.3,-100.00,NNW,328,2.5,4.9,38,0.00,n/a,n/a,-99.99,Henriksen +1-Wire,2013-11-29 19:10:00,
2013-11-29 14:20:00,28.4,6.9,-100.00,NW,309,1.6,5.7,39,0.00,n/a,n/a,-99.99,Henriksen +1-Wire,2013-11-29 19:20:00,
2013-11-29 14:30:00,28.5,7.3,-100.00,WNW,288,0.4,6.5,40,0.00,n/a,n/a,-99.99,Henriksen +1-Wire,2013-11-29 19:30:00,
2013-11-29 14:40:00,28.2,7.4,-100.00,West,281,1.4,4.9,41,0.00,n/a,n/a,-99.99,Henriksen +1-Wire,2013-11-29 19:40:00,
2013-11-29 14:50:00,28.0,7.3,-100.00,WNW,283,3.2,11.1,41,0.00,n/a,n/a,-99.99,Henriksen +1-Wire,2013-11-29 19:50:00,
2013-11-29 15:00:00,27.7,7.5,-100.00,West,275,1.4,8.1,42,0.00,n/a,n/a,-99.99,Henriksen +1-Wire,2013-11-29 20:00:00,
2013-11-29 15:10:00,27.6,8.0,-100.00,West,264,2.2,7.3,43,0.00,n/a,n/a,-99.99,Henriksen +1-Wire,2013-11-29 20:10:00,
2013-11-29 15:20:00,27.4,8.0,-100.00,NW,306,0.3,7.3,43,0.00,n/a,n/a,-99.99,Henriksen +1-Wire,2013-11-29 20:20:00,
2013-11-29 15:30:00,27.0,7.7,-100.00,NNW,336,0.0,2.4,43,0.00,n/a,n/a,-99.99,Henriksen +1-Wire,2013-11-29 20:30:00,
2013-11-29 15:40:00,26.7,7.6,-100.00,WNW,303,2.3,7.3,44,0.00,n/a,n/a,-99.99,Henriksen +1-Wire,2013-11-29 20:40:00,
2013-11-29 15:50:00,26.7,7.9,-100.00,North,356,0.3,3.2,44,0.00,n/a,n/a,-99.99,Henriksen +1-Wire,2013-11-29 20:50:00,
2013-11-29 16:00:00,26.4,7.7,-100.00,North,353,0.0,0.0,44,0.00,n/a,n/a,-99.99,Henriksen +1-Wire,2013-11-29 21:00:00,
2013-11-29 16:10:00,25.9,8.2,-100.00,WNW,285,1.9,6.4,46,0.00,n/a,n/a,-99.99,Henriksen +1-Wire,2013-11-29 21:10:00,
2013-11-29 16:20:00,25.9,8.3,-100.00,WNW,284,1.8,4.1,47,0.00,n/a,n/a,-99.99,Henriksen +1-Wire,2013-11-29 21:20:00,
2013-11-29 16:30:00,25.5,7.9,-100.00,WNW,287,1.6,4.0,47,0.00,n/a,n/a,-99.99,Henriksen +1-Wire,2013-11-29 21:30:00,
2013-11-29 16:40:00,25.1,8.1,-100.00,NW,316,1.8,4.9,48,0.00,n/a,n/a,-99.99,Henriksen +1-Wire,2013-11-29 21:40:00,
2013-11-29 16:50:00,24.6,8.5,-100.00,West,269,0.0,0.8,49,0.00,n/a,n/a,-99.99,Henriksen +1-Wire,2013-11-29 21:50:00,
2013-11-29 17:00:00,24.1,8.9,-100.00,West,269,0.0,0.0,51,0.00,n/a,n/a,-99.99,Henriksen +1-Wire,2013-11-29 22:00:00,
2013-11-29 17:10:00,23.6,9.0,-100.00,West,269,0.0,0.0,53,0.00,n/a,n/a,-99.99,Henriksen +1-Wire,2013-11-29 22:10:00,
2013-11-29 17:20:00,23.3,9.8,-100.00,West,269,0.0,0.0,55,0.00,n/a,n/a,-99.99,Henriksen +1-Wire,2013-11-29 22:20:00,
2013-11-29 17:30:00,22.8,10.3,-100.00,West,269,0.0,0.0,58,0.00,n/a,n/a,-99.99,Henriksen +1-Wire,2013-11-29 22:30:00,
2013-11-29 17:40:00,22.4,10.4,-100.00,West,269,0.0,0.0,59,0.00,n/a,n/a,-99.99,Henriksen +1-Wire,2013-11-29 22:40:00,
2013-11-29 17:50:00,22.1,10.9,-100.00,West,269,0.0,0.0,61,0.00,n/a,n/a,-99.99,Henriksen +1-Wire,2013-11-29 22:50:00,
2013-11-29 18:00:00,22.3,11.1,-100.00,West,269,0.0,0.0,61,0.00,n/a,n/a,-99.99,Henriksen +1-Wire,2013-11-29 23:00:00,
2013-11-29 18:10:00,22.0,10.4,-100.00,West,269,0.0,0.0,60,0.00,n/a,n/a,-99.99,Henriksen +1-Wire,2013-11-29 23:10:00,
2013-11-29 18:20:00,22.0,10.4,-100.00,West,269,0.0,0.0,60,0.00,n/a,n/a,-99.99,Henriksen +1-Wire,2013-11-29 23:20:00,
2013-11-29 18:30:00,22.1,9.7,-100.00,WNW,287,0.0,0.0,58,0.00,n/a,n/a,-99.99,Henriksen +1-Wire,2013-11-29 23:30:00,
2013-11-29 18:40:00,22.0,9.8,-100.00,WNW,291,0.0,0.0,58,0.00,n/a,n/a,-99.99,Henriksen +1-Wire,2013-11-29 23:40:00,
2013-11-29 18:50:00,21.7,10.0,-100.00,NW,316,0.3,3.2,60,0.00,n/a,n/a,-99.99,Henriksen +1-Wire,2013-11-29 23:50:00,
2013-11-29 19:00:00,22.0,9.6,-100.00,NNW,336,0.0,1.6,58,0.00,n/a,n/a,-99.99,Henriksen +1-Wire,2013-11-30 00:00:00,
2013-11-29 19:10:00,21.8,9.3,-100.00,North,350,1.3,5.6,58,0.00,n/a,n/a,-99.99,Henriksen +1-Wire,2013-11-30 00:10:00,
2013-11-29 19:20:00,21.9,9.2,-100.00,NW,322,1.6,6.5,57,0.00,n/a,n/a,-99.99,Henriksen +1-Wire,2013-11-30 00:20:00,
2013-11-29 19:30:00,21.8,8.9,-100.00,ENE,70,1.7,3.2,57,0.00,n/a,n/a,-99.99,Henriksen +1-Wire,2013-11-30 00:30:00,
2013-11-29 19:40:00,21.6,9.0,-100.00,NNW,336,0.0,2.4,58,0.00,n/a,n/a,-99.99,Henriksen +1-Wire,2013-11-30 00:40:00,
2013-11-29 19:50:00,21.5,9.4,-100.00,NNW,336,0.0,3.2,59,0.00,n/a,n/a,-99.99,Henriksen +1-Wire,2013-11-30 00:50:00,
2013-11-29 20:00:00,21.3,9.3,-100.00,NNW,336,0.0,0.0,59,0.00,n/a,n/a,-99.99,Henriksen +1-Wire,2013-11-30 01:00:00,
2013-11-29 20:10:00,21.1,9.9,-100.00,NNW,336,0.0,1.6,61,0.00,n/a,n/a,-99.99,Henriksen +1-Wire,2013-11-30 01:10:00,
2013-11-29 20:20:00,20.9,10.2,-100.00,NNW,336,0.0,0.0,62,0.00,n/a,n/a,-99.99,Henriksen +1-Wire,2013-11-30 01:20:00,
2013-11-29 20:30:00,20.7,10.7,-100.00,NNW,336,0.0,0.0,65,0.00,n/a,n/a,-99.99,Henriksen +1-Wire,2013-11-30 01:30:00,
2013-11-29 20:40:00,20.5,10.7,-100.00,NNW,336,0.0,0.0,65,0.00,n/a,n/a,-99.99,Henriksen +1-Wire,2013-11-30 01:40:00,
2013-11-29 20:50:00,20.2,10.6,-100.00,NNW,336,0.0,0.0,66,0.00,n/a,n/a,-99.99,Henriksen +1-Wire,2013-11-30 01:50:00,
2013-11-29 21:00:00,19.8,10.5,-100.00,NNW,336,0.0,0.0,67,0.00,n/a,n/a,-99.99,Henriksen +1-Wire,2013-11-30 02:00:00,
2013-11-29 21:10:00,19.2,10.8,-100.00,NNW,336,0.0,0.0,69,0.00,n/a,n/a,-99.99,Henriksen +1-Wire,2013-11-30 02:10:00,
2013-11-29 21:20:00,18.9,10.3,-100.00,NNW,336,0.0,0.0,68,0.00,n/a,n/a,-99.99,Henriksen +1-Wire,2013-11-30 02:20:00,
2013-11-29 21:30:00,18.8,10.7,-100.00,NNW,336,0.0,0.0,70,0.00,n/a,n/a,-99.99,Henriksen +1-Wire,2013-11-30 02:30:00,
2013-11-29 21:40:00,18.4,11.1,-100.00,NNW,336,0.0,0.0,72,0.00,n/a,n/a,-99.99,Henriksen +1-Wire,2013-11-30 02:40:00,
2013-11-29 21:50:00,18.0,10.9,-100.00,NNW,336,0.0,0.0,73,0.00,n/a,n/a,-99.99,Henriksen +1-Wire,2013-11-30 02:50:00,
2013-11-29 22:00:00,18.0,10.9,-100.00,NNW,336,0.0,0.0,73,0.00,n/a,n/a,-99.99,Henriksen +1-Wire,2013-11-30 03:00:00,
2013-11-29 22:10:00,17.7,10.9,-100.00,NNW,336,0.0,0.0,74,0.00,n/a,n/a,-99.99,Henriksen +1-Wire,2013-11-30 03:10:00,
2013-11-29 22:20:00,17.2,11.1,-100.00,NNW,336,0.0,0.0,76,0.00,n/a,n/a,-99.99,Henriksen +1-Wire,2013-11-30 03:20:00,
2013-11-29 22:30:00,17.0,11.3,-100.00,NNW,336,0.0,0.0,78,0.00,n/a,n/a,-99.99,Henriksen +1-Wire,2013-11-30 03:30:00,
2013-11-29 22:40:00,16.5,11.0,-100.00,NNW,336,0.0,0.0,78,0.00,n/a,n/a,-99.99,Henriksen +1-Wire,2013-11-30 03:40:00,
2013-11-29 22:50:00,16.5,10.6,-100.00,NNW,336,0.0,0.0,77,0.00,n/a,n/a,-99.99,Henriksen +1-Wire,2013-11-30 03:50:00,
2013-11-29 23:00:00,16.4,10.8,-100.00,NNW,336,0.0,0.0,78,0.00,n/a,n/a,-99.99,Henriksen +1-Wire,2013-11-30 04:00:00,
2013-11-29 23:10:00,16.1,10.9,-100.00,NNW,336,0.0,0.0,79,0.00,n/a,n/a,-99.99,Henriksen +1-Wire,2013-11-30 04:10:00,
2013-11-29 23:20:00,15.9,11.3,-100.00,NNW,336,0.0,0.0,81,0.00,n/a,n/a,-99.99,Henriksen +1-Wire,2013-11-30 04:20:00,
2013-11-29 23:30:00,15.6,11.4,-100.00,NNW,336,0.0,0.0,83,0.00,n/a,n/a,-99.99,Henriksen +1-Wire,2013-11-30 04:30:00,
2013-11-29 23:40:00,15.3,11.1,-100.00,NNW,336,0.0,0.0,83,0.00,n/a,n/a,-99.99,Henriksen +1-Wire,2013-11-30 04:40:00,
2013-11-29 23:50:00,14.8,10.6,-100.00,NNW,336,0.0,0.0,83,0.00,n/a,n/a,-99.99,Henriksen +1-Wire,2013-11-30 04:50:00,